createdAt,value
2016-10-22T00:04:15.311Z,8.87
2016-10-22T00:09:11.802Z,8.82
2016-10-22T00:14:10.422Z,8.81
2016-10-22T00:19:06.663Z,8.81
2016-10-22T00:24:05.779Z,8.79
2016-10-22T00:29:02.303Z,8.82
2016-10-22T00:33:59.191Z,8.81
2016-10-22T00:38:55.488Z,8.73
2016-10-22T00:43:52.204Z,8.67
2016-10-22T00:48:48.849Z,8.64
2016-10-22T00:53:46.706Z,8.61
2016-10-22T00:58:42.807Z,8.73
2016-10-22T01:03:45.576Z,8.64
2016-10-22T01:08:42.306Z,8.76
2016-10-22T01:13:38.811Z,8.60
2016-10-22T01:18:35.205Z,8.49
2016-10-22T01:23:32.869Z,8.66
2016-10-22T01:28:29.639Z,8.53
2016-10-22T01:33:26.280Z,8.56
2016-10-22T01:38:22.840Z,8.46
2016-10-22T01:43:19.295Z,8.52
2016-10-22T01:48:15.964Z,8.51
2016-10-22T01:53:12.200Z,8.33
2016-10-22T01:58:11.044Z,8.42
2016-10-22T02:03:07.170Z,8.30
2016-10-22T02:08:03.526Z,8.36
2016-10-22T02:13:00.074Z,8.37
2016-10-22T02:17:56.626Z,8.36
2016-10-22T02:22:53.469Z,8.49
2016-10-22T02:27:50.293Z,8.48
2016-10-22T02:32:46.760Z,8.33
2016-10-22T02:37:43.195Z,8.33
2016-10-22T02:42:41.977Z,8.26
2016-10-22T02:47:37.928Z,8.27
2016-10-22T02:52:34.409Z,8.28
2016-10-22T02:57:30.986Z,8.34
2016-10-22T03:02:27.347Z,8.26
2016-10-22T03:07:23.867Z,8.33
2016-10-22T03:12:21.039Z,8.27
2016-10-22T03:17:17.492Z,8.37
2016-10-22T03:22:13.848Z,8.31
2016-10-22T03:32:12.988Z,8.19
2016-10-22T03:37:09.151Z,8.23
2016-10-22T03:42:05.638Z,8.15
2016-10-22T03:47:02.408Z,8.12
2016-10-22T03:51:58.883Z,8.15
2016-10-22T03:56:55.750Z,8.13
2016-10-22T04:01:51.833Z,8.19
2016-10-22T04:06:48.711Z,8.15
2016-10-22T04:11:45.251Z,8.18
2016-10-22T04:16:43.092Z,8.16
2016-10-22T04:21:38.952Z,8.19
2016-10-22T04:26:35.276Z,8.09
2016-10-22T04:31:31.761Z,8.13
2016-10-22T04:36:28.577Z,8.10
2016-10-22T04:41:25.089Z,8.15
2016-10-22T04:46:21.526Z,8.03
2016-10-22T04:51:18.025Z,8.10
2016-10-22T04:56:14.639Z,8.05
2016-10-22T05:01:11.119Z,7.91
2016-10-22T05:06:07.742Z,7.98
2016-10-22T05:11:04.320Z,7.87
2016-10-22T05:16:00.885Z,7.75
2016-10-22T05:20:57.424Z,7.72
2016-10-22T05:25:53.944Z,7.61
2016-10-22T05:30:50.524Z,7.70
2016-10-22T05:35:48.419Z,7.69
2016-10-22T05:40:44.343Z,7.58
2016-10-22T05:45:42.149Z,7.56
2016-10-22T05:50:38.950Z,7.63
2016-10-22T05:55:36.495Z,7.57
2016-10-22T06:00:32.586Z,7.61
2016-10-22T06:05:30.546Z,7.57
2016-10-22T06:10:26.606Z,7.53
2016-10-22T06:15:23.986Z,7.80
2016-10-22T06:20:20.457Z,7.80
2016-10-22T06:25:17.197Z,7.79
2016-10-22T06:30:14.936Z,7.76
2016-10-22T06:35:11.159Z,7.76
2016-10-22T06:40:09.108Z,7.79
2016-10-22T06:45:05.518Z,7.80
2016-10-22T06:50:02.087Z,7.80
2016-10-22T06:54:58.563Z,7.82
2016-10-22T06:59:55.018Z,7.93
2016-10-22T07:04:52.796Z,7.83
2016-10-22T07:09:48.826Z,7.90
2016-10-22T07:14:45.370Z,7.93
2016-10-22T07:19:41.945Z,7.87
2016-10-22T07:24:38.633Z,8.03
2016-10-22T07:29:34.697Z,7.91
2016-10-22T07:34:31.328Z,7.87
2016-10-22T07:39:28.255Z,7.97
2016-10-22T07:44:24.783Z,7.80
2016-10-22T07:49:21.182Z,7.85
2016-10-22T07:54:17.925Z,7.87
2016-10-22T07:59:14.524Z,7.91
2016-10-22T08:04:10.984Z,7.97
2016-10-22T08:09:07.767Z,8.03
2016-10-22T08:14:04.052Z,8.16
2016-10-22T08:19:01.238Z,7.95
2016-10-22T08:23:58.523Z,8.09
2016-10-22T08:28:54.739Z,8.08
2016-10-22T08:33:51.623Z,8.28
2016-10-22T08:38:48.183Z,8.27
2016-10-22T08:43:45.023Z,8.42
2016-10-22T08:48:41.785Z,8.44
2016-10-22T08:53:39.803Z,8.73
2016-10-22T08:58:36.610Z,8.71
2016-10-22T09:03:33.191Z,8.76
2016-10-22T09:08:30.940Z,8.89
2016-10-22T09:13:27.708Z,9.31
2016-10-22T09:18:24.257Z,9.48
2016-10-22T09:23:21.142Z,9.10
2016-10-22T09:28:18.563Z,9.04
2016-10-22T09:33:14.922Z,9.19
2016-10-22T09:38:11.950Z,8.91
2016-10-22T09:43:08.722Z,9.00
2016-10-22T09:48:05.391Z,9.55
2016-10-22T09:53:02.012Z,9.77
2016-10-22T09:57:59.460Z,9.91
2016-10-22T10:02:56.698Z,10.10
2016-10-22T10:07:53.337Z,9.80
2016-10-22T10:12:50.256Z,9.99
2016-10-22T10:17:46.743Z,10.09
2016-10-22T10:22:43.389Z,10.02
2016-10-22T10:27:42.906Z,9.72
2016-10-22T10:32:38.671Z,9.47
2016-10-22T10:37:34.848Z,9.54
2016-10-22T10:42:31.580Z,9.47
2016-10-22T10:47:29.001Z,9.41
2016-10-22T10:52:25.517Z,9.48
2016-10-22T10:57:22.223Z,9.74
2016-10-22T11:02:19.082Z,10.01
2016-10-22T11:07:15.522Z,9.94
2016-10-22T11:12:14.625Z,9.76
2016-10-22T11:17:10.937Z,9.61
2016-10-22T11:22:07.796Z,9.74
2016-10-22T11:27:04.751Z,9.76
2016-10-22T11:32:02.429Z,9.84
2016-10-22T11:36:58.754Z,9.91
2016-10-22T11:41:57.799Z,9.99
2016-10-22T11:46:53.758Z,10.12
2016-10-22T11:51:50.593Z,10.22
2016-10-22T11:56:47.080Z,10.40
2016-10-22T12:01:43.786Z,9.98
2016-10-22T12:06:40.350Z,10.17
2016-10-22T12:11:36.743Z,10.22
2016-10-22T12:16:33.810Z,10.35
2016-10-22T12:21:30.573Z,10.09
2016-10-22T12:26:26.771Z,10.40
2016-10-22T12:31:24.294Z,10.15
2016-10-22T12:36:20.932Z,10.37
2016-10-22T12:41:18.569Z,10.40
2016-10-22T12:46:15.094Z,10.40
2016-10-22T12:51:14.357Z,10.78
2016-10-22T12:56:11.099Z,10.87
2016-10-22T13:01:07.432Z,10.78
2016-10-22T13:06:04.091Z,10.69
2016-10-22T13:11:00.536Z,10.56
2016-10-22T13:15:57.970Z,10.51
2016-10-22T13:20:54.693Z,10.28
2016-10-22T13:30:56.085Z,10.15
2016-10-22T13:35:51.858Z,9.83
2016-10-22T13:40:47.949Z,9.89
2016-10-22T13:45:44.732Z,10.09
2016-10-22T13:50:41.166Z,10.15
2016-10-22T13:55:40.461Z,9.99
2016-10-22T14:00:36.517Z,9.83
2016-10-22T14:05:34.152Z,9.86
2016-10-22T14:10:30.958Z,9.95
2016-10-22T14:15:29.270Z,9.54
2016-10-22T14:20:25.639Z,9.59
2016-10-22T14:25:22.101Z,9.54
2016-10-22T14:30:18.687Z,9.55
2016-10-22T14:35:15.001Z,9.34
2016-10-22T14:40:11.426Z,9.34
2016-10-22T14:45:07.812Z,9.31
2016-10-22T14:50:06.663Z,9.18
2016-10-22T14:55:03.883Z,9.22
2016-10-22T14:59:59.906Z,9.13
2016-10-22T15:04:56.522Z,9.04
2016-10-22T15:09:52.769Z,8.88
2016-10-22T15:14:49.294Z,8.84
2016-10-22T15:19:45.786Z,8.79
2016-10-22T15:24:42.364Z,8.69
2016-10-22T15:29:39.979Z,8.56
2016-10-22T15:34:36.235Z,8.48
2016-10-22T15:39:32.621Z,8.41
2016-10-22T15:44:29.095Z,8.53
2016-10-22T15:49:25.552Z,8.63
2016-10-22T15:54:21.791Z,8.45
2016-10-22T15:59:20.918Z,8.51
2016-10-22T16:04:16.501Z,8.53
2016-10-22T16:09:13.771Z,8.42
2016-10-22T16:14:09.962Z,8.49
2016-10-22T16:19:06.718Z,8.52
2016-10-22T16:24:03.246Z,8.48
2016-10-22T16:28:59.494Z,8.55
2016-10-22T16:33:55.894Z,8.44
2016-10-22T16:38:52.379Z,8.52
2016-10-22T16:43:49.352Z,8.36
2016-10-22T16:48:45.858Z,8.41
2016-10-22T16:53:43.535Z,8.31
2016-10-22T16:58:39.813Z,8.26
2016-10-22T17:03:36.250Z,8.33
2016-10-22T17:08:32.488Z,8.26
2016-10-22T17:13:29.082Z,8.37
2016-10-22T17:18:28.190Z,8.28
2016-10-22T17:23:24.716Z,8.30
2016-10-22T17:28:21.037Z,8.20
2016-10-22T17:33:17.336Z,8.19
2016-10-22T17:38:13.859Z,8.20
2016-10-22T17:43:09.932Z,8.18
2016-10-22T17:48:06.421Z,8.16
2016-10-22T17:53:02.812Z,8.13
2016-10-22T17:57:59.279Z,8.01
2016-10-22T18:02:55.809Z,7.97
2016-10-22T18:07:52.280Z,7.80
2016-10-22T18:12:48.826Z,7.80
2016-10-22T18:17:45.101Z,7.75
2016-10-22T18:22:41.645Z,7.75
2016-10-22T18:27:38.004Z,7.61
2016-10-22T18:32:34.822Z,7.57
2016-10-22T18:37:31.102Z,7.67
2016-10-22T18:42:27.344Z,7.75
2016-10-22T18:47:24.061Z,7.77
2016-10-22T18:52:20.502Z,7.67
2016-10-22T18:57:16.945Z,7.58
2016-10-22T19:02:13.359Z,7.42
2016-10-22T19:07:12.309Z,7.17
2016-10-22T19:12:08.198Z,7.13
2016-10-22T19:17:04.664Z,7.07
2016-10-22T19:22:01.020Z,6.97
2016-10-22T19:26:57.602Z,7.02
2016-10-22T19:31:54.129Z,6.93
2016-10-22T19:36:50.570Z,7.10
2016-10-22T19:41:46.902Z,7.02
2016-10-22T19:46:43.255Z,6.84
2016-10-22T19:51:39.705Z,6.79
2016-10-22T19:56:36.257Z,6.69
2016-10-22T20:01:32.693Z,6.62
2016-10-22T20:06:29.254Z,6.46
2016-10-22T20:11:26.264Z,6.46
2016-10-22T20:16:23.245Z,6.39
2016-10-22T20:21:19.736Z,6.20
2016-10-22T20:26:16.157Z,6.35
2016-10-22T20:31:12.733Z,6.35
2016-10-22T20:36:09.093Z,6.30
2016-10-22T20:41:06.713Z,6.17
2016-10-22T20:46:02.865Z,6.12
2016-10-22T20:51:00.469Z,5.98
2016-10-22T20:55:56.648Z,5.87
2016-10-22T21:00:53.068Z,5.87
2016-10-22T21:05:49.455Z,5.75
2016-10-22T21:10:47.031Z,5.79
2016-10-22T21:15:42.982Z,5.75
2016-10-22T21:20:39.328Z,5.73
2016-10-22T21:25:35.720Z,5.89
2016-10-22T21:30:31.668Z,5.83
2016-10-22T21:35:28.019Z,5.80
2016-10-22T21:40:24.567Z,5.75
2016-10-22T21:45:21.027Z,5.72
2016-10-22T21:50:17.448Z,5.73
2016-10-22T21:55:14.650Z,5.82
2016-10-22T22:00:11.228Z,5.87
2016-10-22T22:05:08.589Z,5.82
2016-10-22T22:10:06.677Z,5.87
2016-10-22T22:15:04.988Z,5.84
2016-10-22T22:20:00.997Z,5.71
2016-10-22T22:24:57.555Z,5.59
2016-10-22T22:29:54.670Z,5.23
2016-10-22T22:34:50.882Z,5.17
2016-10-22T22:39:47.291Z,5.10
2016-10-22T22:44:43.948Z,5.12
2016-10-22T22:49:40.272Z,4.99
2016-10-22T22:54:36.650Z,4.89
2016-10-22T22:59:33.196Z,4.59
2016-10-22T23:04:29.533Z,4.49
2016-10-22T23:09:25.914Z,4.42
2016-10-22T23:14:22.495Z,4.28
2016-10-22T23:19:19.002Z,4.40
2016-10-22T23:24:15.656Z,4.22
2016-10-22T23:29:13.527Z,4.23
2016-10-22T23:34:09.556Z,4.26
2016-10-22T23:39:06.040Z,4.24
2016-10-22T23:44:02.338Z,4.16
2016-10-22T23:48:59.223Z,4.19
2016-10-22T23:53:55.434Z,4.19
2016-10-22T23:58:51.782Z,4.19
